Terminal Aerodrome Forecast
Issued by NWS Caribou, ME

Current Version | Previous Version | Text Only | Print | Product List | Glossary On
Versions: 1 2 3 4 5 6 7 8 9 10 11 12 13 14 15
000
FTUS41 KCAR 291740
TAFCAR
TAF
KCAR 291740Z 2918/3018 24010KT P6SM BKN045
     FM300400 23006KT P6SM BKN045
     FM300600 22006KT P6SM BKN020
     FM300900 20005KT 5SM -RA SCT007 OVC015
     FM301200 23005KT P6SM -RA OVC007
     FM301600 27006KT P6SM SCT025 BKN040=

USA.gov is the U.S. government's official web portal to all federal, state and local government web resources and services.